createdAt,value
2023-03-05T00:00:15.715Z,63.75
2023-03-05T00:02:43.200Z,66.25
2023-03-05T00:05:11.417Z,64.97
2023-03-05T00:07:38.697Z,68.57
2023-03-05T00:10:06.985Z,64.05
2023-03-05T00:12:34.269Z,58.03
2023-03-05T00:15:01.596Z,64.97
2023-03-05T00:17:29.753Z,66.22
2023-03-05T00:19:59.969Z,64.13
2023-03-05T00:22:28.128Z,63.25
2023-03-05T00:24:55.462Z,70.10
2023-03-05T00:27:22.797Z,63.67
2023-03-05T00:29:50.082Z,64.95
2023-03-05T00:32:17.515Z,71.18
2023-03-05T00:34:45.428Z,71.07
2023-03-05T00:37:12.725Z,58.65
2023-03-05T00:39:39.968Z,63.88
2023-03-05T00:42:07.821Z,64.32
2023-03-05T00:44:35.633Z,72.95
2023-03-05T00:47:03.057Z,60.20
2023-03-05T00:49:30.360Z,67.57
2023-03-05T00:51:57.564Z,67.22
2023-03-05T00:54:24.867Z,61.63
2023-03-05T00:56:52.165Z,62.92
2023-03-05T00:59:19.455Z,63.70
2023-03-05T01:01:46.773Z,61.15
2023-03-05T01:04:14.075Z,61.35
2023-03-05T01:06:44.842Z,63.80
2023-03-05T01:09:14.280Z,62.95
2023-03-05T01:11:41.669Z,66.20
2023-03-05T01:14:09.158Z,60.28
2023-03-05T01:16:36.401Z,65.60
2023-03-05T01:19:03.676Z,66.63
2023-03-05T01:21:30.971Z,63.97
2023-03-05T01:23:58.969Z,65.05
2023-03-05T01:26:26.354Z,62.92
2023-03-05T01:28:53.977Z,63.80
2023-03-05T01:31:21.408Z,67.78
2023-03-05T01:33:48.692Z,63.83
2023-03-05T01:36:16.900Z,63.50
2023-03-05T01:38:45.740Z,67.43
2023-03-05T01:41:15.474Z,65.30
2023-03-05T01:43:43.749Z,65.55
2023-03-05T01:46:29.795Z,65.30
2023-03-05T01:48:59.933Z,61.50
2023-03-05T01:51:31.787Z,64.00
2023-03-05T01:54:01.977Z,64.07
2023-03-05T01:56:30.800Z,65.78
2023-03-05T01:59:03.563Z,65.45
2023-03-05T02:01:42.567Z,69.28
2023-03-05T02:04:12.848Z,67.93
2023-03-05T02:06:42.480Z,68.32
2023-03-05T02:09:10.874Z,61.35
2023-03-05T02:11:38.836Z,61.65
2023-03-05T02:14:09.910Z,66.05
2023-03-05T02:16:38.494Z,63.97
2023-03-05T02:19:08.597Z,62.58
2023-03-05T02:21:43.276Z,64.05
2023-03-05T02:24:37.536Z,60.28
2023-03-05T02:27:05.983Z,60.58
2023-03-05T02:29:34.063Z,60.83
2023-03-05T02:32:01.906Z,63.83
2023-03-05T02:34:29.629Z,65.22
2023-03-05T02:36:57.120Z,62.88
2023-03-05T02:39:25.559Z,61.63
2023-03-05T02:41:53.937Z,64.85
2023-03-05T02:44:21.211Z,64.60
2023-03-05T02:46:48.683Z,62.25
2023-03-05T02:49:16.401Z,65.60
2023-03-05T02:51:43.628Z,61.75
2023-03-05T02:54:11.201Z,63.60
2023-03-05T02:56:39.557Z,64.38
2023-03-05T02:59:06.886Z,64.55
2023-03-05T03:01:34.961Z,63.33
2023-03-05T03:04:02.291Z,61.80
2023-03-05T03:06:29.604Z,61.58
2023-03-05T03:08:57.864Z,61.38
2023-03-05T03:11:25.187Z,60.45
2023-03-05T03:13:52.441Z,64.25
2023-03-05T03:16:19.981Z,63.40
2023-03-05T03:18:48.843Z,60.08
2023-03-05T03:21:22.261Z,63.65
2023-03-05T03:23:49.730Z,63.25
2023-03-05T03:26:17.405Z,66.28
2023-03-05T03:28:45.166Z,65.95
2023-03-05T03:31:12.499Z,66.30
2023-03-05T03:33:39.859Z,64.28
2023-03-05T03:36:07.825Z,62.22
2023-03-05T03:38:35.242Z,64.38
2023-03-05T03:41:03.711Z,63.88
2023-03-05T03:43:30.932Z,63.80
2023-03-05T03:45:58.273Z,63.53
2023-03-05T03:48:25.613Z,63.90
2023-03-05T03:50:52.842Z,65.22
2023-03-05T03:53:20.124Z,64.22
2023-03-05T03:55:47.551Z,58.47
2023-03-05T03:58:14.868Z,60.05
2023-03-05T04:00:42.588Z,63.65
2023-03-05T04:03:09.821Z,63.85
2023-03-05T04:05:37.146Z,60.25
2023-03-05T04:08:04.978Z,61.58
2023-03-05T04:10:32.252Z,61.47
2023-03-05T04:12:59.564Z,63.13
2023-03-05T04:15:30.405Z,64.75
2023-03-05T04:17:57.650Z,66.43
2023-03-05T04:20:25.027Z,65.97
2023-03-05T04:22:52.516Z,65.13
2023-03-05T04:25:19.733Z,66.75
2023-03-05T04:27:50.393Z,66.65
2023-03-05T04:30:17.800Z,62.55
2023-03-05T04:32:45.122Z,62.78
2023-03-05T04:35:12.414Z,65.00
2023-03-05T04:37:39.632Z,61.65
2023-03-05T04:40:07.814Z,70.13
2023-03-05T04:42:35.131Z,67.05
2023-03-05T04:45:02.709Z,67.15
2023-03-05T04:47:30.094Z,65.38
2023-03-05T04:49:57.336Z,65.20
2023-03-05T04:52:24.775Z,64.05
2023-03-05T04:54:52.095Z,60.28
2023-03-05T04:57:19.415Z,65.90
2023-03-05T04:59:46.706Z,61.20
2023-03-05T05:02:13.966Z,60.33
2023-03-05T05:04:44.968Z,61.55
2023-03-05T05:07:12.585Z,64.82
2023-03-05T05:09:41.512Z,62.65
2023-03-05T05:12:10.395Z,65.18
2023-03-05T05:14:37.903Z,63.97
2023-03-05T05:17:05.338Z,62.50
2023-03-05T05:19:34.736Z,63.83
2023-03-05T05:22:02.304Z,63.70
2023-03-05T05:24:29.746Z,67.88
2023-03-05T05:26:57.206Z,67.20
2023-03-05T05:29:24.811Z,65.15
2023-03-05T05:31:54.101Z,62.97
2023-03-05T05:34:21.460Z,63.00
2023-03-05T05:36:48.710Z,65.03
2023-03-05T05:39:15.931Z,64.40
2023-03-05T05:41:43.194Z,64.80
2023-03-05T05:44:10.596Z,65.57
2023-03-05T05:46:37.918Z,61.88
2023-03-05T05:49:05.376Z,64.95
2023-03-05T05:51:32.613Z,65.75
2023-03-05T05:54:00.054Z,61.10
2023-03-05T05:56:27.970Z,60.25
2023-03-05T05:58:55.545Z,63.15
2023-03-05T06:01:30.524Z,69.68
2023-03-05T06:03:58.595Z,58.90
2023-03-05T06:06:27.111Z,63.10
2023-03-05T06:08:55.485Z,57.75
2023-03-05T06:11:23.082Z,60.00
2023-03-05T06:13:50.663Z,64.15
2023-03-05T06:16:21.148Z,66.43
2023-03-05T06:18:48.566Z,61.33
2023-03-05T06:21:18.194Z,61.42
2023-03-05T06:23:46.786Z,57.67
2023-03-05T06:26:17.301Z,59.75
2023-03-05T06:28:45.126Z,57.50
2023-03-05T06:31:15.459Z,56.95
2023-03-05T06:33:44.019Z,57.30
2023-03-05T06:36:16.805Z,58.72
2023-03-05T06:38:44.514Z,61.65
2023-03-05T06:41:17.973Z,59.75
2023-03-05T06:43:46.912Z,57.45
2023-03-05T06:46:17.527Z,55.20
2023-03-05T06:48:45.749Z,58.17
2023-03-05T06:51:22.122Z,57.53
2023-03-05T06:56:18.036Z,55.50
2023-03-05T06:58:47.990Z,53.13
2023-03-05T07:01:16.198Z,56.33
2023-03-05T07:03:43.762Z,55.65
2023-03-05T07:06:13.899Z,55.60
2023-03-05T07:08:44.676Z,55.33
2023-03-05T07:11:14.304Z,53.88
2023-03-05T07:13:42.004Z,55.30
2023-03-05T07:16:13.451Z,51.88
2023-03-05T07:18:40.769Z,50.63
2023-03-05T07:21:09.572Z,57.40
2023-03-05T07:23:36.939Z,48.95
2023-03-05T07:26:06.227Z,48.75
2023-03-05T07:28:34.298Z,49.65
2023-03-05T07:31:05.225Z,53.55
2023-03-05T07:33:33.674Z,52.13
2023-03-05T07:36:01.610Z,50.67
2023-03-05T07:38:28.884Z,49.95
2023-03-05T07:40:56.134Z,48.67
2023-03-05T07:43:23.378Z,49.58
2023-03-05T07:45:50.863Z,53.80
2023-03-05T07:48:20.963Z,49.55
2023-03-05T07:50:48.862Z,65.07
2023-03-05T07:53:16.268Z,55.53
2023-03-05T07:55:47.443Z,51.45
2023-03-05T07:58:15.006Z,55.33
2023-03-05T08:00:42.540Z,52.50
2023-03-05T08:03:09.797Z,50.85
2023-03-05T08:05:40.321Z,51.33
2023-03-05T08:08:08.363Z,50.95
2023-03-05T08:10:37.152Z,48.58
2023-03-05T08:13:05.148Z,48.67
2023-03-05T08:15:32.514Z,47.70
2023-03-05T08:18:00.377Z,44.80
2023-03-05T08:20:27.609Z,47.65
2023-03-05T08:22:54.877Z,46.33
2023-03-05T08:25:22.457Z,47.15
2023-03-05T08:27:49.724Z,50.28
2023-03-05T08:30:20.350Z,45.83
2023-03-05T08:32:49.555Z,43.95
2023-03-05T08:35:16.893Z,48.13
2023-03-05T08:37:44.251Z,46.85
2023-03-05T08:40:12.473Z,51.00
2023-03-05T08:42:39.748Z,44.20
2023-03-05T08:45:07.828Z,51.47
2023-03-05T08:47:35.158Z,48.22
2023-03-05T08:50:02.372Z,49.08
2023-03-05T08:52:29.777Z,49.35
2023-03-05T08:54:57.205Z,51.72
2023-03-05T08:57:24.421Z,49.50
2023-03-05T08:59:51.729Z,51.72
2023-03-05T09:02:18.955Z,47.90
2023-03-05T09:04:46.259Z,50.58
2023-03-05T09:07:13.545Z,51.58
2023-03-05T09:09:40.892Z,50.35
2023-03-05T09:12:12.073Z,49.22
2023-03-05T09:14:40.705Z,46.15
2023-03-05T09:17:09.027Z,48.13
2023-03-05T09:19:36.324Z,47.75
2023-03-05T09:22:03.690Z,48.65
2023-03-05T09:24:30.964Z,49.60
2023-03-05T09:27:00.304Z,49.08
2023-03-05T09:29:28.682Z,51.47
2023-03-05T09:31:55.991Z,48.60
2023-03-05T09:34:24.050Z,51.45
2023-03-05T09:36:51.330Z,45.72
2023-03-05T09:39:18.602Z,48.60
2023-03-05T09:42:32.009Z,52.50
2023-03-05T09:45:22.396Z,50.53
2023-03-05T09:48:16.773Z,52.10
2023-03-05T09:50:58.685Z,49.78
2023-03-05T09:53:36.848Z,53.40
2023-03-05T09:56:12.498Z,53.33
2023-03-05T09:58:49.554Z,52.83
2023-03-05T10:01:27.022Z,52.42
2023-03-05T10:04:04.024Z,48.97
2023-03-05T10:06:36.623Z,49.75
2023-03-05T10:09:09.951Z,48.70
2023-03-05T10:11:43.406Z,45.95
2023-03-05T10:14:16.087Z,45.72
2023-03-05T10:16:55.570Z,50.70
2023-03-05T10:19:44.312Z,45.80
2023-03-05T10:22:29.660Z,52.33
2023-03-05T10:25:06.065Z,48.33
2023-03-05T10:27:42.133Z,46.45
2023-03-05T10:30:26.892Z,46.63
2023-03-05T10:33:12.448Z,53.15
2023-03-05T10:35:48.898Z,52.10
2023-03-05T10:38:22.663Z,51.80
2023-03-05T10:40:54.489Z,48.40
2023-03-05T10:43:48.168Z,48.00
2023-03-05T10:46:22.187Z,51.17
2023-03-05T10:48:59.614Z,48.03
2023-03-05T10:51:41.081Z,45.65
2023-03-05T10:54:31.759Z,50.15
2023-03-05T10:57:14.164Z,50.47
2023-03-05T10:59:55.249Z,53.65
2023-03-05T11:02:23.163Z,51.13
2023-03-05T11:04:52.190Z,49.05
2023-03-05T11:07:19.415Z,51.70
2023-03-05T11:10:16.113Z,50.47
2023-03-05T11:12:44.993Z,48.72
2023-03-05T11:15:12.156Z,46.63
2023-03-05T11:17:49.186Z,51.63
2023-03-05T11:20:34.625Z,50.03
2023-03-05T11:23:24.218Z,52.75
2023-03-05T11:26:02.494Z,51.90
2023-03-05T11:28:39.522Z,48.80
2023-03-05T11:31:18.211Z,44.88
2023-03-05T11:34:04.557Z,47.45
2023-03-05T11:36:39.935Z,51.38
2023-03-05T11:39:10.164Z,45.20
2023-03-05T11:41:50.381Z,43.95
2023-03-05T11:44:45.037Z,47.35
2023-03-05T11:47:18.423Z,48.28
2023-03-05T11:49:50.089Z,47.03
2023-03-05T11:52:34.037Z,46.95
2023-03-05T11:55:13.346Z,45.78
2023-03-05T11:57:49.689Z,46.22
2023-03-05T12:00:23.826Z,52.03
2023-03-05T12:02:56.254Z,46.03
2023-03-05T12:05:23.734Z,47.30
2023-03-05T12:07:55.178Z,44.80
2023-03-05T12:10:24.882Z,46.30
2023-03-05T12:13:04.140Z,46.00
2023-03-05T12:16:12.501Z,56.63
2023-03-05T12:18:58.430Z,63.28
2023-03-05T12:21:38.044Z,47.72
2023-03-05T12:24:24.839Z,50.78
2023-03-05T12:26:55.953Z,46.20
2023-03-05T12:29:49.018Z,52.42
2023-03-05T12:32:22.784Z,44.78
2023-03-05T12:34:58.160Z,46.00
2023-03-05T12:37:25.661Z,42.97
2023-03-05T12:40:23.319Z,47.13
2023-03-05T12:43:15.443Z,51.72
2023-03-05T12:45:42.998Z,45.97
2023-03-05T12:48:12.371Z,47.83
2023-03-05T12:50:39.790Z,48.70
2023-03-05T12:53:07.085Z,49.92
2023-03-05T12:55:40.745Z,51.60
2023-03-05T12:58:17.019Z,47.75
2023-03-05T13:00:52.028Z,50.35
2023-03-05T13:03:30.824Z,52.72
2023-03-05T13:06:00.498Z,54.60
2023-03-05T13:08:35.287Z,47.78
2023-03-05T13:11:08.716Z,46.85
2023-03-05T13:13:41.725Z,49.40
2023-03-05T13:16:23.888Z,51.97
2023-03-05T13:18:53.112Z,52.03
2023-03-05T13:21:26.593Z,49.75
2023-03-05T13:23:58.919Z,57.53
2023-03-05T13:26:36.547Z,55.13
2023-03-05T13:29:13.485Z,49.88
2023-03-05T13:31:46.544Z,48.28
2023-03-05T13:34:23.320Z,50.10
2023-03-05T13:37:01.846Z,50.08
2023-03-05T13:39:33.901Z,47.20
2023-03-05T13:42:26.574Z,48.72
2023-03-05T13:44:59.348Z,50.67
2023-03-05T13:47:32.679Z,49.58
2023-03-05T13:50:05.990Z,51.03
2023-03-05T13:52:36.179Z,48.70
2023-03-05T13:55:12.395Z,53.40
2023-03-05T14:00:38.982Z,52.35
2023-03-05T14:03:34.646Z,47.72
2023-03-05T14:06:09.499Z,51.80
2023-03-05T14:08:36.911Z,47.33
2023-03-05T14:11:15.389Z,48.78
2023-03-05T14:13:43.529Z,52.05
2023-03-05T14:16:12.697Z,47.53
2023-03-05T14:18:54.559Z,53.92
2023-03-05T14:21:21.864Z,47.13
2023-03-05T14:23:52.966Z,48.17
2023-03-05T14:26:33.453Z,52.35
2023-03-05T14:29:03.697Z,49.83
2023-03-05T14:31:54.574Z,53.63
2023-03-05T14:34:31.111Z,51.70
2023-03-05T14:37:04.059Z,48.92
2023-03-05T14:39:52.814Z,50.78
2023-03-05T14:42:38.412Z,48.70
2023-03-05T14:45:16.654Z,50.03
2023-03-05T14:47:44.676Z,51.05
2023-03-05T14:50:37.081Z,49.00
2023-03-05T14:53:15.605Z,50.83
2023-03-05T14:55:43.710Z,48.95
2023-03-05T14:58:14.453Z,50.20
2023-03-05T15:00:42.951Z,52.50
2023-03-05T15:03:17.289Z,51.47
2023-03-05T15:05:47.877Z,51.53
2023-03-05T15:08:20.267Z,50.63
2023-03-05T15:10:48.447Z,53.75
2023-03-05T15:13:16.864Z,52.85
2023-03-05T15:15:45.974Z,55.80
2023-03-05T15:18:14.572Z,52.58
2023-03-05T15:20:42.546Z,51.50
2023-03-05T15:23:10.461Z,50.42
2023-03-05T15:25:37.695Z,50.47
2023-03-05T15:28:05.569Z,50.38
2023-03-05T15:30:40.886Z,56.80
2023-03-05T15:33:11.367Z,53.20
2023-03-05T15:35:38.885Z,54.42
2023-03-05T15:38:06.321Z,52.55
2023-03-05T15:40:33.812Z,53.33
2023-03-05T15:43:01.472Z,55.85
2023-03-05T15:45:31.329Z,51.45
2023-03-05T15:47:58.903Z,56.83
2023-03-05T15:50:26.386Z,54.65
2023-03-05T15:52:53.803Z,54.63
2023-03-05T15:55:21.690Z,55.13
2023-03-05T15:57:50.456Z,51.92
2023-03-05T16:00:23.817Z,54.40
2023-03-05T16:02:53.022Z,51.45
2023-03-05T16:05:20.474Z,56.05
2023-03-05T16:07:51.757Z,53.38
2023-03-05T16:10:23.968Z,55.85
2023-03-05T16:12:54.392Z,55.80
2023-03-05T16:15:22.501Z,57.53
2023-03-05T16:17:54.948Z,56.22
2023-03-05T16:20:22.885Z,57.22
2023-03-05T16:22:50.522Z,55.95
2023-03-05T16:25:17.953Z,61.15
2023-03-05T16:27:45.463Z,56.55
2023-03-05T16:30:15.108Z,57.03
2023-03-05T16:32:43.002Z,59.20
2023-03-05T16:35:12.517Z,58.85
2023-03-05T16:37:41.039Z,57.17
2023-03-05T16:40:11.137Z,55.05
2023-03-05T16:42:38.574Z,58.08
2023-03-05T16:45:07.359Z,54.92
2023-03-05T16:47:34.982Z,58.88
2023-03-05T16:50:02.405Z,60.45
2023-03-05T16:52:29.879Z,61.35
2023-03-05T16:54:57.141Z,54.67
2023-03-05T16:57:25.590Z,56.97
2023-03-05T16:59:54.127Z,64.80
2023-03-05T17:02:22.208Z,62.33
2023-03-05T17:04:50.376Z,63.42
2023-03-05T17:07:18.610Z,57.17
2023-03-05T17:09:47.958Z,62.10
2023-03-05T17:12:15.476Z,62.58
2023-03-05T17:14:42.882Z,63.50
2023-03-05T17:17:10.737Z,62.67
2023-03-05T17:19:38.512Z,64.43
2023-03-05T17:22:06.124Z,60.30
2023-03-05T17:24:33.954Z,62.00
2023-03-05T17:27:01.381Z,62.15
2023-03-05T17:29:30.518Z,61.10
2023-03-05T17:31:57.846Z,64.20
2023-03-05T17:34:35.489Z,68.50
2023-03-05T17:37:04.927Z,62.22
2023-03-05T17:39:32.645Z,67.72
2023-03-05T17:42:00.326Z,65.45
2023-03-05T17:44:27.617Z,62.95
2023-03-05T17:46:54.881Z,62.85
2023-03-05T17:49:22.293Z,69.50
2023-03-05T17:51:49.652Z,64.72
2023-03-05T17:54:16.976Z,67.57
2023-03-05T17:56:44.737Z,67.05
2023-03-05T17:59:12.053Z,70.60
2023-03-05T18:01:39.297Z,65.95
2023-03-05T18:04:06.730Z,68.35
2023-03-05T18:06:34.096Z,68.20
2023-03-05T18:09:01.492Z,69.97
2023-03-05T18:11:30.815Z,69.60
2023-03-05T18:13:58.529Z,67.38
2023-03-05T18:16:26.681Z,67.55
2023-03-05T18:18:54.637Z,76.93
2023-03-05T18:21:24.220Z,70.55
2023-03-05T18:23:52.070Z,70.05
2023-03-05T18:26:19.408Z,64.85
2023-03-05T18:28:47.149Z,67.18
2023-03-05T18:31:14.580Z,69.00
2023-03-05T18:33:42.983Z,73.47
2023-03-05T18:36:11.862Z,70.18
2023-03-05T18:38:39.231Z,73.70
2023-03-05T18:41:08.002Z,71.85
2023-03-05T18:43:36.785Z,73.72
2023-03-05T18:46:05.114Z,73.68
2023-03-05T18:48:32.500Z,72.63
2023-03-05T18:51:01.845Z,79.03
2023-03-05T18:53:29.802Z,76.10
2023-03-05T18:55:57.199Z,79.10
2023-03-05T18:58:26.042Z,76.60
2023-03-05T19:00:53.725Z,80.13
2023-03-05T19:03:22.923Z,77.32
2023-03-05T19:05:51.384Z,81.88
2023-03-05T19:08:19.068Z,78.13
2023-03-05T19:10:46.973Z,80.00
2023-03-05T19:13:43.828Z,80.53
2023-03-05T19:16:16.864Z,78.53
2023-03-05T19:19:23.768Z,73.63
2023-03-05T19:21:54.181Z,74.38
2023-03-05T19:24:23.386Z,77.88
2023-03-05T19:26:55.087Z,74.72
2023-03-05T19:29:23.924Z,66.57
2023-03-05T19:31:52.580Z,73.13
2023-03-05T19:34:20.697Z,73.32
2023-03-05T19:36:48.118Z,67.90
2023-03-05T19:39:15.605Z,71.43
2023-03-05T19:41:43.280Z,66.57
2023-03-05T19:44:11.861Z,68.82
2023-03-05T19:46:41.675Z,66.75
2023-03-05T19:49:10.121Z,67.65
2023-03-05T19:51:39.803Z,71.03
2023-03-05T19:54:07.159Z,67.97
2023-03-05T19:56:37.924Z,64.25
2023-03-05T19:59:05.842Z,67.82
2023-03-05T20:01:34.144Z,66.05
2023-03-05T20:04:04.111Z,66.95
2023-03-05T20:06:32.611Z,63.10
2023-03-05T20:09:00.221Z,55.95
2023-03-05T20:11:28.548Z,60.85
2023-03-05T20:13:56.676Z,63.40
2023-03-05T20:16:27.385Z,58.85
2023-03-05T20:18:56.141Z,64.82
2023-03-05T20:21:29.181Z,56.72
2023-03-05T20:24:05.628Z,64.88
2023-03-05T20:26:36.030Z,56.53
2023-03-05T20:29:04.940Z,60.83
2023-03-05T20:31:35.283Z,56.13
2023-03-05T20:34:08.995Z,54.92
2023-03-05T20:36:37.080Z,58.20
2023-03-05T20:39:05.895Z,58.75
2023-03-05T20:41:35.479Z,60.58
2023-03-05T20:44:03.402Z,57.05
2023-03-05T20:46:33.864Z,60.75
2023-03-05T20:49:02.404Z,56.30
2023-03-05T20:51:31.141Z,56.85
2023-03-05T20:54:02.595Z,58.15
2023-03-05T20:56:32.462Z,54.45
2023-03-05T20:59:03.824Z,56.83
2023-03-05T21:01:33.386Z,53.13
2023-03-05T21:04:01.639Z,54.00
2023-03-05T21:06:31.058Z,54.40
2023-03-05T21:08:59.252Z,55.95
2023-03-05T21:11:28.044Z,52.83
2023-03-05T21:13:55.347Z,54.05
2023-03-05T21:16:25.766Z,55.20
2023-03-05T21:18:53.867Z,53.35
2023-03-05T21:21:21.217Z,51.95
2023-03-05T21:23:48.476Z,50.67
2023-03-05T21:26:15.784Z,54.45
2023-03-05T21:28:43.128Z,48.85
2023-03-05T21:31:22.266Z,51.72
2023-03-05T21:33:49.949Z,52.22
2023-03-05T21:36:19.195Z,55.70
2023-03-05T21:38:48.297Z,50.22
2023-03-05T21:41:18.085Z,52.00
2023-03-05T21:43:45.655Z,51.05
2023-03-05T21:46:14.965Z,57.08
2023-03-05T21:48:42.261Z,52.33
2023-03-05T21:52:10.895Z,56.53
2023-03-05T21:54:44.770Z,51.88
2023-03-05T21:57:12.214Z,51.75
2023-03-05T21:59:42.528Z,52.97
2023-03-05T22:02:16.055Z,51.78
2023-03-05T22:04:43.914Z,51.85
2023-03-05T22:07:11.887Z,61.47
2023-03-05T22:09:39.442Z,56.92
2023-03-05T22:13:08.844Z,55.22
2023-03-05T22:15:46.253Z,61.00
2023-03-05T22:18:19.834Z,58.58
2023-03-05T22:20:47.864Z,59.20
2023-03-05T22:23:19.374Z,74.30
2023-03-05T22:25:54.746Z,55.17
2023-03-05T22:31:23.510Z,59.25
2023-03-05T22:33:50.864Z,59.70
2023-03-05T22:36:18.744Z,58.15
2023-03-05T22:38:46.755Z,59.13
2023-03-05T22:41:16.627Z,54.03
2023-03-05T22:43:43.900Z,67.85
2023-03-05T22:46:16.136Z,55.17
2023-03-05T22:48:44.062Z,77.93
2023-03-05T22:51:11.759Z,58.25
2023-03-05T22:53:39.856Z,58.63
2023-03-05T22:56:09.770Z,61.45
2023-03-05T22:58:38.006Z,62.25
2023-03-05T23:01:24.993Z,61.30
2023-03-05T23:04:53.059Z,61.80
2023-03-05T23:07:23.579Z,62.10
2023-03-05T23:10:01.312Z,64.22
2023-03-05T23:12:31.927Z,66.40
2023-03-05T23:15:01.264Z,72.22
2023-03-05T23:18:45.552Z,66.30
2023-03-05T23:21:38.568Z,65.10
2023-03-05T23:24:06.476Z,65.32
2023-03-05T23:26:33.802Z,60.70
2023-03-05T23:29:01.003Z,62.17
2023-03-05T23:31:28.668Z,65.70
2023-03-05T23:33:56.210Z,59.47
2023-03-05T23:36:25.494Z,65.10
2023-03-05T23:38:57.421Z,61.78
2023-03-05T23:41:25.238Z,64.20
2023-03-05T23:43:52.648Z,61.05
2023-03-05T23:46:20.148Z,60.78
2023-03-05T23:48:47.678Z,63.38
2023-03-05T23:51:15.630Z,60.60
2023-03-05T23:53:44.239Z,57.05
2023-03-05T23:56:12.467Z,60.92
2023-03-05T23:58:40.023Z,61.35
